createdAt,value
2022-10-31T00:00:50.915Z,83.54
2022-10-31T00:03:19.454Z,83.59
2022-10-31T00:05:50.652Z,83.93
2022-10-31T00:08:19.593Z,84.07
2022-10-31T00:10:48.921Z,84.29
2022-10-31T00:13:17.382Z,83.93
2022-10-31T00:15:45.267Z,84.24
2022-10-31T00:18:13.687Z,84.39
2022-10-31T00:20:41.657Z,84.28
2022-10-31T00:23:10.301Z,84.04
2022-10-31T00:25:40.853Z,84.18
2022-10-31T00:28:13.773Z,84.04
2022-10-31T00:30:41.721Z,83.90
2022-10-31T00:33:09.466Z,84.07
2022-10-31T00:35:37.251Z,84.40
2022-10-31T00:38:07.353Z,84.62
2022-10-31T00:40:38.403Z,84.21
2022-10-31T00:43:07.360Z,83.86
2022-10-31T00:45:40.333Z,84.21
2022-10-31T00:48:09.330Z,83.92
2022-10-31T00:50:46.956Z,83.68
2022-10-31T00:53:15.676Z,83.96
2022-10-31T00:55:44.836Z,84.05
2022-10-31T01:00:43.137Z,84.23
2022-10-31T01:03:12.789Z,84.05
2022-10-31T01:05:40.779Z,84.55
2022-10-31T01:08:09.064Z,84.91
2022-10-31T01:10:37.089Z,84.74
2022-10-31T01:13:04.866Z,84.93
2022-10-31T01:15:32.759Z,85.22
2022-10-31T01:18:02.689Z,85.11
2022-10-31T01:20:30.761Z,85.12
2022-10-31T01:22:59.382Z,85.05
2022-10-31T01:25:27.083Z,85.08
2022-10-31T01:27:55.168Z,84.75
2022-10-31T01:30:22.997Z,84.81
2022-10-31T01:32:51.848Z,84.66
2022-10-31T01:35:24.399Z,84.59
2022-10-31T01:37:52.280Z,85.19
2022-10-31T01:40:20.200Z,85.10
2022-10-31T01:42:48.169Z,85.43
2022-10-31T01:45:42.154Z,85.31
2022-10-31T01:48:15.862Z,85.10
2022-10-31T01:50:48.340Z,85.68
2022-10-31T01:53:19.869Z,85.45
2022-10-31T01:55:49.895Z,85.36
2022-10-31T01:58:24.174Z,85.33
2022-10-31T02:00:55.933Z,85.08
2022-10-31T02:03:24.706Z,85.49
2022-10-31T02:05:56.924Z,85.52
2022-10-31T02:08:29.098Z,85.47
2022-10-31T02:10:59.059Z,85.99
2022-10-31T02:13:28.242Z,85.57
2022-10-31T02:15:57.935Z,85.31
2022-10-31T02:18:29.196Z,84.95
2022-10-31T02:21:09.361Z,84.95
2022-10-31T02:24:11.804Z,84.79
2022-10-31T02:26:51.494Z,84.66
2022-10-31T02:29:38.240Z,84.78
2022-10-31T02:32:14.721Z,84.93
2022-10-31T02:34:50.519Z,85.20
2022-10-31T02:37:28.117Z,85.07
2022-10-31T02:40:03.049Z,85.35
2022-10-31T02:42:37.688Z,85.49
2022-10-31T02:45:12.437Z,85.19
2022-10-31T02:47:45.768Z,84.43
2022-10-31T02:50:21.059Z,83.93
2022-10-31T02:52:52.819Z,83.50
2022-10-31T02:55:46.658Z,83.33
2022-10-31T03:01:12.904Z,82.83
2022-10-31T03:03:55.416Z,83.94
2022-10-31T03:06:33.180Z,83.47
2022-10-31T03:09:07.702Z,83.22
2022-10-31T03:11:45.623Z,83.61
2022-10-31T03:14:19.096Z,84.10
2022-10-31T03:16:49.636Z,84.41
2022-10-31T03:19:22.419Z,84.64
2022-10-31T03:21:55.827Z,84.96
2022-10-31T03:24:27.171Z,85.22
2022-10-31T03:26:59.820Z,85.57
2022-10-31T03:29:31.500Z,85.59
2022-10-31T03:32:02.898Z,85.32
2022-10-31T03:34:33.945Z,85.94
2022-10-31T03:37:05.771Z,85.73
2022-10-31T03:39:35.213Z,86.02
2022-10-31T03:42:11.652Z,86.00
2022-10-31T03:44:43.444Z,86.27
2022-10-31T03:47:11.581Z,87.17
2022-10-31T03:49:41.111Z,87.56
2022-10-31T03:52:18.798Z,87.36
2022-10-31T03:54:48.680Z,88.19
2022-10-31T03:57:22.323Z,88.26
2022-10-31T03:59:58.398Z,88.35
2022-10-31T04:02:32.261Z,88.07
2022-10-31T04:05:02.620Z,88.00
2022-10-31T04:07:35.556Z,88.53
2022-10-31T04:10:08.026Z,88.48
2022-10-31T04:12:37.495Z,88.71
2022-10-31T04:15:08.729Z,88.86
2022-10-31T04:17:42.406Z,88.71
2022-10-31T04:20:12.820Z,89.29
2022-10-31T04:22:42.512Z,89.14
2022-10-31T04:25:15.764Z,89.49
2022-10-31T04:27:44.518Z,90.06
2022-10-31T04:30:14.065Z,89.96
2022-10-31T04:32:41.950Z,89.70
2022-10-31T04:35:11.323Z,90.45
2022-10-31T04:37:39.165Z,90.25
2022-10-31T04:40:07.831Z,90.23
2022-10-31T04:42:35.570Z,90.35
2022-10-31T04:45:03.425Z,90.50
2022-10-31T04:47:33.333Z,90.43
2022-10-31T04:50:02.180Z,90.42
2022-10-31T04:52:31.407Z,90.34
2022-10-31T04:54:59.343Z,90.45
2022-10-31T04:57:27.639Z,90.44
2022-10-31T04:59:55.434Z,90.25
2022-10-31T05:02:23.293Z,90.67
2022-10-31T05:04:51.109Z,90.53
2022-10-31T05:07:19.263Z,90.60
2022-10-31T05:09:48.348Z,90.67
2022-10-31T05:12:16.260Z,90.80
2022-10-31T05:14:46.173Z,90.71
2022-10-31T05:17:16.531Z,90.80
2022-10-31T05:19:44.226Z,90.86
2022-10-31T05:22:12.169Z,91.41
2022-10-31T05:24:40.156Z,91.32
2022-10-31T05:27:09.236Z,91.39
2022-10-31T05:29:37.238Z,91.19
2022-10-31T05:32:09.196Z,91.40
2022-10-31T05:34:37.025Z,91.24
2022-10-31T05:37:05.283Z,91.14
2022-10-31T05:39:33.366Z,91.18
2022-10-31T05:42:01.231Z,91.13
2022-10-31T05:44:30.512Z,91.09
2022-10-31T05:46:58.449Z,91.13
2022-10-31T05:49:26.349Z,91.09
2022-10-31T05:51:54.261Z,91.00
2022-10-31T05:54:22.605Z,91.18
2022-10-31T05:56:50.379Z,91.12
2022-10-31T05:59:18.234Z,90.66
2022-10-31T06:01:47.655Z,91.44
2022-10-31T06:04:15.408Z,91.33
2022-10-31T06:06:43.183Z,91.29
2022-10-31T06:09:10.890Z,91.17
2022-10-31T06:11:38.735Z,90.84
2022-10-31T06:14:06.713Z,90.60
2022-10-31T06:16:34.975Z,90.48
2022-10-31T06:19:04.630Z,90.68
2022-10-31T06:21:32.364Z,91.11
2022-10-31T06:24:00.511Z,90.69
2022-10-31T06:26:28.322Z,90.49
2022-10-31T06:28:59.872Z,90.30
2022-10-31T06:31:30.635Z,90.01
2022-10-31T06:33:58.993Z,90.24
2022-10-31T06:36:31.130Z,90.60
2022-10-31T06:38:59.068Z,89.89
2022-10-31T06:41:28.165Z,90.16
2022-10-31T06:43:56.007Z,89.70
2022-10-31T06:46:26.501Z,89.45
2022-10-31T06:48:56.161Z,89.29
2022-10-31T06:51:24.546Z,89.20
2022-10-31T06:53:53.915Z,88.63
2022-10-31T06:56:21.843Z,88.13
2022-10-31T06:58:52.901Z,89.49
2022-10-31T07:01:21.036Z,87.43
2022-10-31T07:03:49.129Z,86.18
2022-10-31T07:06:17.096Z,86.16
2022-10-31T07:08:45.056Z,86.34
2022-10-31T07:11:14.307Z,85.73
2022-10-31T07:13:42.332Z,85.12
2022-10-31T07:16:13.132Z,84.94
2022-10-31T07:18:41.638Z,84.90
2022-10-31T07:21:09.772Z,85.15
2022-10-31T07:23:37.814Z,85.40
2022-10-31T07:26:05.966Z,84.82
2022-10-31T07:28:35.679Z,83.97
2022-10-31T07:31:04.329Z,83.39
2022-10-31T07:33:32.460Z,83.46
2022-10-31T07:36:00.249Z,84.37
2022-10-31T07:38:28.221Z,84.04
2022-10-31T07:40:56.173Z,83.00
2022-10-31T07:43:24.006Z,82.81
2022-10-31T07:45:54.006Z,82.01
2022-10-31T07:48:22.274Z,81.35
2022-10-31T07:50:50.017Z,81.06
2022-10-31T07:53:17.929Z,81.53
2022-10-31T07:55:46.059Z,81.23
2022-10-31T07:58:15.731Z,81.18
2022-10-31T08:00:45.584Z,80.40
2022-10-31T08:03:16.423Z,79.93
2022-10-31T08:05:46.806Z,79.17
2022-10-31T08:08:15.864Z,78.93
2022-10-31T08:10:44.186Z,78.51
2022-10-31T08:13:14.320Z,77.82
2022-10-31T08:15:42.972Z,77.21
2022-10-31T08:18:16.064Z,76.30
2022-10-31T08:20:54.537Z,76.36
2022-10-31T08:23:33.209Z,76.24
2022-10-31T08:26:01.311Z,77.07
2022-10-31T08:28:29.080Z,76.54
2022-10-31T08:30:56.940Z,76.11
2022-10-31T08:33:26.359Z,74.63
2022-10-31T08:35:54.390Z,74.26
2022-10-31T08:38:22.669Z,73.59
2022-10-31T08:40:51.387Z,72.76
2022-10-31T08:43:20.179Z,70.79
2022-10-31T08:45:51.143Z,71.97
2022-10-31T08:48:19.937Z,69.81
2022-10-31T08:50:49.624Z,73.41
2022-10-31T08:53:19.248Z,72.09
2022-10-31T08:55:48.548Z,70.33
2022-10-31T08:58:17.864Z,69.64
2022-10-31T09:00:46.503Z,70.15
2022-10-31T09:03:16.020Z,70.96
2022-10-31T09:05:45.173Z,70.85
2022-10-31T09:08:16.945Z,70.92
2022-10-31T09:10:45.807Z,70.25
2022-10-31T09:13:16.210Z,70.87
2022-10-31T09:15:46.456Z,69.85
2022-10-31T09:18:15.376Z,71.17
2022-10-31T09:20:44.871Z,70.79
2022-10-31T09:23:17.279Z,70.81
2022-10-31T09:25:50.449Z,69.98
2022-10-31T09:28:21.921Z,69.62
2022-10-31T09:30:51.668Z,69.08
2022-10-31T09:33:20.429Z,67.79
2022-10-31T09:35:48.710Z,68.03
2022-10-31T09:38:20.255Z,69.17
2022-10-31T09:40:51.199Z,67.86
2022-10-31T09:43:27.721Z,67.95
2022-10-31T09:46:06.610Z,67.94
2022-10-31T09:48:44.461Z,67.47
2022-10-31T09:51:15.716Z,67.14
2022-10-31T09:53:50.179Z,66.17
2022-10-31T09:56:20.605Z,65.00
2022-10-31T09:58:54.932Z,64.89
2022-10-31T10:01:46.240Z,64.73
2022-10-31T10:04:40.380Z,65.13
2022-10-31T10:07:18.820Z,63.91
2022-10-31T10:09:48.666Z,62.98
2022-10-31T10:12:24.858Z,64.05
2022-10-31T10:15:11.055Z,64.64
2022-10-31T10:17:47.488Z,62.27
2022-10-31T10:20:24.321Z,62.64
2022-10-31T10:23:04.022Z,61.75
2022-10-31T10:25:41.007Z,61.49
2022-10-31T10:28:22.221Z,61.33
2022-10-31T10:30:55.686Z,61.73
2022-10-31T10:33:31.505Z,60.14
2022-10-31T10:36:02.409Z,61.48
2022-10-31T10:38:38.093Z,59.16
2022-10-31T10:41:12.149Z,57.59
2022-10-31T10:43:40.126Z,56.74
2022-10-31T10:46:41.630Z,53.48
2022-10-31T10:49:18.705Z,54.69
2022-10-31T10:52:02.195Z,56.07
2022-10-31T10:54:58.232Z,59.11
2022-10-31T10:58:02.744Z,55.95
2022-10-31T11:00:36.842Z,55.89
2022-10-31T11:03:06.058Z,57.70
2022-10-31T11:05:39.307Z,58.61
2022-10-31T11:08:08.893Z,57.76
2022-10-31T11:10:37.400Z,60.24
2022-10-31T11:13:22.647Z,57.00
2022-10-31T11:15:58.450Z,56.45
2022-10-31T11:18:32.243Z,57.83
2022-10-31T11:21:03.733Z,56.11
2022-10-31T11:23:32.153Z,55.81
2022-10-31T11:26:02.188Z,55.19
2022-10-31T11:28:33.284Z,56.79
2022-10-31T11:31:03.338Z,59.56
2022-10-31T11:33:34.728Z,58.66
2022-10-31T11:36:04.465Z,58.85
2022-10-31T11:38:37.445Z,59.23
2022-10-31T11:41:14.441Z,60.03
2022-10-31T11:43:52.413Z,60.29
2022-10-31T11:46:30.215Z,61.37
2022-10-31T11:48:58.525Z,62.03
2022-10-31T11:51:29.054Z,62.38
2022-10-31T11:54:02.666Z,62.79
2022-10-31T11:56:41.116Z,61.98
2022-10-31T11:59:20.874Z,61.12
2022-10-31T12:01:51.048Z,61.01
2022-10-31T12:04:18.893Z,60.90
2022-10-31T12:06:48.211Z,61.97
2022-10-31T12:09:22.427Z,61.66
2022-10-31T12:12:15.071Z,60.44
2022-10-31T12:14:55.420Z,60.95
2022-10-31T12:17:29.262Z,60.75
2022-10-31T12:20:06.242Z,60.22
2022-10-31T12:22:43.591Z,60.87
2022-10-31T12:25:27.130Z,62.21
2022-10-31T12:28:22.965Z,61.16
2022-10-31T12:31:05.338Z,61.16
2022-10-31T12:33:45.526Z,62.48
2022-10-31T12:36:28.339Z,65.18
2022-10-31T12:39:08.619Z,64.66
2022-10-31T12:41:47.684Z,63.39
2022-10-31T12:44:42.716Z,62.98
2022-10-31T12:47:37.330Z,62.57
2022-10-31T12:50:21.141Z,63.78
2022-10-31T12:53:01.816Z,62.10
2022-10-31T12:55:43.536Z,63.70
2022-10-31T12:58:16.354Z,63.34
2022-10-31T13:00:48.535Z,64.05
2022-10-31T13:03:28.634Z,63.49
2022-10-31T13:06:00.809Z,64.13
2022-10-31T13:08:33.193Z,64.67
2022-10-31T13:11:08.849Z,65.00
2022-10-31T13:13:40.150Z,65.58
2022-10-31T13:16:14.689Z,65.07
2022-10-31T13:18:48.816Z,65.57
2022-10-31T13:21:23.107Z,64.61
2022-10-31T13:23:52.904Z,62.79
2022-10-31T13:26:37.607Z,57.44
2022-10-31T13:29:13.618Z,53.28
2022-10-31T13:31:42.480Z,52.73
2022-10-31T13:34:22.271Z,52.13
2022-10-31T13:36:58.109Z,52.91
2022-10-31T13:39:35.247Z,54.01
2022-10-31T13:42:11.205Z,52.21
2022-10-31T13:44:39.418Z,50.31
2022-10-31T13:47:28.855Z,50.23
2022-10-31T13:50:20.572Z,50.82
2022-10-31T13:52:48.239Z,49.18
2022-10-31T13:55:37.113Z,48.38
2022-10-31T13:58:06.529Z,49.03
2022-10-31T14:00:36.024Z,48.46
2022-10-31T14:03:03.912Z,49.50
2022-10-31T14:05:35.340Z,51.46
2022-10-31T14:08:06.112Z,55.40
2022-10-31T14:10:37.308Z,55.40
2022-10-31T14:13:07.701Z,56.24
2022-10-31T14:15:37.162Z,56.34
2022-10-31T14:18:07.369Z,55.97
2022-10-31T14:20:41.466Z,56.58
2022-10-31T14:23:15.046Z,59.06
2022-10-31T14:25:42.721Z,59.09
2022-10-31T14:28:33.135Z,59.27
2022-10-31T14:31:01.930Z,58.33
2022-10-31T14:33:31.691Z,58.84
2022-10-31T14:36:05.319Z,58.26
2022-10-31T14:38:49.325Z,59.11
2022-10-31T14:41:53.098Z,59.00
2022-10-31T14:44:53.368Z,58.68
2022-10-31T14:47:31.909Z,59.53
2022-10-31T14:50:20.521Z,60.02
2022-10-31T14:52:52.318Z,60.69
2022-10-31T14:55:21.489Z,61.67
2022-10-31T14:57:54.585Z,61.53
2022-10-31T15:00:24.771Z,61.30
2022-10-31T15:03:05.000Z,63.19
2022-10-31T15:05:34.945Z,62.24
2022-10-31T15:08:04.013Z,62.70
2022-10-31T15:10:36.111Z,62.78
2022-10-31T15:13:19.626Z,64.80
2022-10-31T15:15:52.029Z,65.47
2022-10-31T15:18:23.084Z,65.42
2022-10-31T15:20:53.284Z,64.97
2022-10-31T15:23:26.650Z,64.84
2022-10-31T15:26:00.875Z,67.31
2022-10-31T15:28:29.478Z,68.09
2022-10-31T15:30:59.178Z,68.75
2022-10-31T15:33:33.659Z,68.17
2022-10-31T15:36:05.881Z,68.65
2022-10-31T15:38:34.980Z,69.36
2022-10-31T15:41:06.853Z,68.83
2022-10-31T15:43:37.759Z,69.97
2022-10-31T15:46:11.037Z,73.78
2022-10-31T15:48:39.358Z,73.47
2022-10-31T15:51:07.217Z,71.50
2022-10-31T15:53:43.995Z,70.48
2022-10-31T15:56:20.549Z,70.19
2022-10-31T15:58:50.331Z,71.59
2022-10-31T16:01:24.378Z,70.86
2022-10-31T16:04:07.186Z,71.39
2022-10-31T16:06:37.106Z,71.76
2022-10-31T16:09:23.259Z,72.39
2022-10-31T16:11:51.408Z,73.07
2022-10-31T16:14:25.782Z,73.42
2022-10-31T16:16:55.822Z,74.37
2022-10-31T16:19:26.320Z,72.88
2022-10-31T16:21:56.899Z,73.40
2022-10-31T16:24:30.220Z,74.52
2022-10-31T16:27:05.212Z,76.51
2022-10-31T16:29:36.668Z,77.56
2022-10-31T16:32:04.920Z,77.98
2022-10-31T16:34:32.925Z,78.62
2022-10-31T16:37:00.449Z,78.30
2022-10-31T16:39:29.335Z,77.78
2022-10-31T16:41:58.353Z,78.29
2022-10-31T16:44:28.391Z,79.54
2022-10-31T16:47:11.393Z,79.44
2022-10-31T16:49:39.034Z,76.63
2022-10-31T16:52:06.589Z,76.64
2022-10-31T16:54:36.112Z,78.35
2022-10-31T16:57:05.979Z,78.55
2022-10-31T16:59:34.619Z,79.56
2022-10-31T17:02:03.273Z,79.43
2022-10-31T17:04:30.992Z,80.07
2022-10-31T17:06:58.590Z,81.17
2022-10-31T17:09:26.302Z,81.78
2022-10-31T17:11:55.567Z,82.63
2022-10-31T17:14:23.377Z,82.91
2022-10-31T17:16:51.071Z,83.25
2022-10-31T17:19:18.704Z,83.58
2022-10-31T17:21:46.269Z,83.91
2022-10-31T17:24:15.465Z,83.78
2022-10-31T17:26:44.731Z,83.35
2022-10-31T17:29:13.736Z,84.34
2022-10-31T17:31:41.722Z,85.33
2022-10-31T17:34:10.091Z,85.58
2022-10-31T17:36:38.275Z,85.57
2022-10-31T17:39:09.599Z,85.45
2022-10-31T17:41:37.154Z,85.77
2022-10-31T17:44:04.994Z,86.05
2022-10-31T17:46:33.993Z,86.22
2022-10-31T17:49:01.706Z,86.09
2022-10-31T17:51:29.256Z,86.10
2022-10-31T17:53:56.793Z,85.57
2022-10-31T17:56:24.368Z,85.72
2022-10-31T17:58:51.983Z,86.81
2022-10-31T18:01:20.457Z,86.47
2022-10-31T18:03:49.476Z,86.80
2022-10-31T18:06:17.347Z,87.24
2022-10-31T18:08:45.144Z,87.20
2022-10-31T18:11:15.024Z,86.86
2022-10-31T18:13:42.913Z,86.71
2022-10-31T18:16:11.558Z,86.72
2022-10-31T18:18:39.544Z,85.89
2022-10-31T18:21:08.656Z,85.46
2022-10-31T18:23:36.291Z,85.36
2022-10-31T18:26:04.253Z,85.39
2022-10-31T18:28:31.852Z,85.50
2022-10-31T18:31:00.343Z,85.60
2022-10-31T18:33:28.549Z,86.16
2022-10-31T18:35:56.407Z,86.32
2022-10-31T18:38:25.708Z,86.27
2022-10-31T18:40:53.439Z,86.36
2022-10-31T18:43:21.015Z,86.49
2022-10-31T18:45:52.342Z,85.93
2022-10-31T18:48:22.755Z,86.05
2022-10-31T18:50:50.341Z,86.05
2022-10-31T18:53:17.883Z,86.34
2022-10-31T18:55:49.104Z,86.25
2022-10-31T18:58:17.875Z,86.28
2022-10-31T19:00:45.935Z,86.11
2022-10-31T19:03:14.560Z,86.19
2022-10-31T19:05:42.246Z,85.62
2022-10-31T19:08:10.114Z,85.53
2022-10-31T19:10:39.110Z,85.69
2022-10-31T19:13:08.403Z,86.56
2022-10-31T19:15:37.072Z,86.58
2022-10-31T19:18:05.513Z,86.38
2022-10-31T19:20:33.651Z,86.86
2022-10-31T19:23:01.873Z,87.24
2022-10-31T19:25:29.970Z,87.93
2022-10-31T19:27:57.691Z,88.07
2022-10-31T19:30:26.688Z,88.34
2022-10-31T19:32:55.159Z,88.48
2022-10-31T19:35:22.840Z,88.08
2022-10-31T19:37:50.528Z,88.04
2022-10-31T19:40:18.365Z,88.20
2022-10-31T19:42:46.212Z,88.17
2022-10-31T19:45:15.865Z,87.82
2022-10-31T19:47:44.782Z,87.52
2022-10-31T19:50:12.406Z,87.21
2022-10-31T19:52:40.045Z,87.14
2022-10-31T19:55:08.303Z,86.93
2022-10-31T19:57:56.584Z,86.31
2022-10-31T20:00:24.887Z,86.62
2022-10-31T20:02:53.937Z,87.77
2022-10-31T20:05:22.505Z,87.89
2022-10-31T20:07:50.141Z,88.17
2022-10-31T20:10:18.129Z,87.75
2022-10-31T20:12:45.873Z,87.99
2022-10-31T20:15:13.579Z,88.52
2022-10-31T20:17:41.229Z,88.62
2022-10-31T20:20:11.569Z,88.71
2022-10-31T20:22:39.616Z,89.02
2022-10-31T20:25:08.128Z,89.52
2022-10-31T20:27:35.877Z,89.50
2022-10-31T20:30:03.642Z,89.91
2022-10-31T20:32:31.409Z,90.00
2022-10-31T20:34:59.201Z,90.29
2022-10-31T20:37:28.400Z,90.35
2022-10-31T20:39:56.728Z,90.45
2022-10-31T20:42:24.760Z,90.13
2022-10-31T20:44:52.477Z,90.90
2022-10-31T20:47:23.367Z,90.60
2022-10-31T20:49:53.595Z,90.67
2022-10-31T20:52:21.445Z,90.12
2022-10-31T20:54:50.484Z,90.47
2022-10-31T20:57:18.188Z,91.00
2022-10-31T20:59:45.905Z,91.24
2022-10-31T21:02:13.881Z,91.40
2022-10-31T21:04:41.732Z,91.46
2022-10-31T21:07:09.759Z,91.83
2022-10-31T21:09:37.545Z,91.87
2022-10-31T21:12:06.915Z,91.92
2022-10-31T21:14:35.277Z,92.15
2022-10-31T21:17:02.894Z,92.48
2022-10-31T21:19:30.435Z,92.48
2022-10-31T21:21:58.052Z,92.21
2022-10-31T21:24:28.001Z,92.30
2022-10-31T21:26:56.058Z,91.97
2022-10-31T21:29:25.458Z,92.04
2022-10-31T21:31:53.194Z,92.44
2022-10-31T21:34:20.740Z,92.68
2022-10-31T21:36:48.353Z,92.21
2022-10-31T21:39:15.904Z,92.19
2022-10-31T21:41:44.342Z,91.96
2022-10-31T21:44:11.909Z,92.51
2022-10-31T21:46:40.787Z,92.24
2022-10-31T21:49:08.369Z,92.40
2022-10-31T21:51:37.067Z,92.64
2022-10-31T21:54:23.317Z,92.54
2022-10-31T21:56:51.595Z,92.63
2022-10-31T21:59:19.259Z,92.59
2022-10-31T22:01:48.279Z,92.49
2022-10-31T22:04:15.992Z,92.60
2022-10-31T22:06:44.135Z,92.59
2022-10-31T22:09:13.747Z,92.79
2022-10-31T22:11:42.374Z,92.56
2022-10-31T22:14:13.357Z,92.85
2022-10-31T22:16:41.318Z,92.88
2022-10-31T22:19:12.366Z,92.77
2022-10-31T22:21:41.831Z,92.63
2022-10-31T22:24:10.844Z,92.75
2022-10-31T22:26:39.664Z,92.41
2022-10-31T22:29:11.453Z,92.53
2022-10-31T22:31:40.704Z,92.74
2022-10-31T22:34:09.708Z,92.38
2022-10-31T22:36:38.686Z,91.81
2022-10-31T22:39:07.328Z,91.85
2022-10-31T22:41:36.915Z,91.71
2022-10-31T22:44:06.129Z,91.47
2022-10-31T22:46:35.822Z,91.64
2022-10-31T22:49:05.487Z,92.08
2022-10-31T22:51:36.174Z,92.06
2022-10-31T22:54:04.339Z,92.00
2022-10-31T22:56:34.764Z,91.73
2022-10-31T22:59:03.215Z,91.56
2022-10-31T23:01:33.131Z,91.01
2022-10-31T23:04:01.685Z,90.60
2022-10-31T23:06:31.914Z,90.46
2022-10-31T23:09:03.184Z,89.79
2022-10-31T23:11:34.306Z,91.10
2022-10-31T23:14:13.777Z,89.03
2022-10-31T23:16:46.676Z,90.48
2022-10-31T23:19:18.038Z,88.90
2022-10-31T23:21:57.280Z,87.60
2022-10-31T23:24:29.381Z,88.05
2022-10-31T23:27:10.466Z,89.81
2022-10-31T23:29:44.270Z,87.15
2022-10-31T23:32:15.319Z,88.06
2022-10-31T23:34:42.908Z,87.16
2022-10-31T23:37:10.847Z,87.61
2022-10-31T23:39:39.851Z,88.58
2022-10-31T23:42:07.865Z,88.82
2022-10-31T23:44:35.464Z,88.98
2022-10-31T23:47:03.372Z,88.56
2022-10-31T23:49:31.000Z,89.18
2022-10-31T23:51:58.896Z,89.01
2022-10-31T23:54:27.897Z,88.99
2022-10-31T23:56:58.006Z,89.18
2022-10-31T23:59:25.900Z,89.11
